createdAt,value
2018-11-10T00:02:22.066Z,16.27
2018-11-10T00:04:50.661Z,19.50
2018-11-10T00:07:19.272Z,17.00
2018-11-10T00:09:47.934Z,14.17
2018-11-10T00:12:16.500Z,15.87
2018-11-10T00:14:45.099Z,18.03
2018-11-10T00:17:13.687Z,18.00
2018-11-10T00:19:42.242Z,21.53
2018-11-10T00:22:10.820Z,19.80
2018-11-10T00:24:39.379Z,17.80
2018-11-10T00:27:07.925Z,20.27
2018-11-10T00:29:36.512Z,18.63
2018-11-10T00:32:05.496Z,18.63
2018-11-10T00:34:34.075Z,20.23
2018-11-10T00:37:02.591Z,18.77
2018-11-10T00:39:31.253Z,16.70
2018-11-10T00:41:59.751Z,19.07
2018-11-10T00:44:28.317Z,19.80
2018-11-10T00:46:56.835Z,19.03
2018-11-10T00:49:25.455Z,18.83
2018-11-10T00:51:53.997Z,17.17
2018-11-10T00:54:22.533Z,15.00
2018-11-10T00:56:51.015Z,17.43
2018-11-10T00:59:20.020Z,18.57
2018-11-10T01:01:48.589Z,15.90
2018-11-10T01:04:17.134Z,15.90
2018-11-10T01:06:45.667Z,19.30
2018-11-10T01:09:14.188Z,18.70
2018-11-10T01:11:42.659Z,16.27
2018-11-10T01:14:11.189Z,15.27
2018-11-10T01:16:39.774Z,18.67
2018-11-10T01:19:08.362Z,17.80
2018-11-10T01:21:36.848Z,17.00
2018-11-10T01:24:05.382Z,15.13
2018-11-10T01:26:33.912Z,16.33
2018-11-10T01:29:02.450Z,17.10
2018-11-10T01:31:30.998Z,15.80
2018-11-10T01:33:59.560Z,18.00
2018-11-10T01:36:28.112Z,17.87
2018-11-10T01:38:56.637Z,18.37
2018-11-10T01:41:25.154Z,17.50
2018-11-10T01:43:53.695Z,14.27
2018-11-10T01:46:22.257Z,14.87
2018-11-10T01:48:50.765Z,12.13
2018-11-10T01:51:19.296Z,14.20
2018-11-10T01:53:47.877Z,13.27
2018-11-10T01:56:16.405Z,14.00
2018-11-10T01:58:44.920Z,12.30
2018-11-10T02:01:13.452Z,11.50
2018-11-10T02:03:42.803Z,10.33
2018-11-10T02:06:11.303Z,13.77
2018-11-10T02:08:39.856Z,11.13
2018-11-10T02:11:08.468Z,14.83
2018-11-10T02:13:36.992Z,12.47
2018-11-10T02:16:05.700Z,9.00
2018-11-10T02:18:34.200Z,9.17
2018-11-10T02:21:02.757Z,10.23
2018-11-10T02:23:31.282Z,15.13
2018-11-10T02:25:59.860Z,9.27
2018-11-10T02:28:28.368Z,7.27
2018-11-10T02:30:56.967Z,10.33
2018-11-10T02:33:25.636Z,9.10
2018-11-10T02:35:54.155Z,8.53
2018-11-10T02:38:22.679Z,8.27
2018-11-10T02:40:51.196Z,9.33
2018-11-10T02:43:19.724Z,9.67
2018-11-10T02:45:48.264Z,6.00
2018-11-10T02:48:16.800Z,8.37
2018-11-10T02:50:45.328Z,9.57
2018-11-10T02:53:13.833Z,7.80
2018-11-10T02:55:42.338Z,7.57
2018-11-10T02:58:10.851Z,8.30
2018-11-10T03:00:39.370Z,7.83
2018-11-10T03:03:07.886Z,5.47
2018-11-10T03:05:36.425Z,7.77
2018-11-10T03:08:05.043Z,7.37
2018-11-10T03:10:33.558Z,7.13
2018-11-10T03:13:02.092Z,7.50
2018-11-10T03:15:30.708Z,6.87
2018-11-10T03:17:59.296Z,7.37
2018-11-10T03:20:27.851Z,9.10
2018-11-10T03:22:56.283Z,8.53
2018-11-10T03:25:24.816Z,6.90
2018-11-10T03:27:53.376Z,7.47
2018-11-10T03:30:21.926Z,6.67
2018-11-10T03:32:50.465Z,9.97
2018-11-10T03:35:19.041Z,5.93
2018-11-10T03:37:47.627Z,6.23
2018-11-10T03:40:16.207Z,4.60
2018-11-10T03:42:44.691Z,7.13
2018-11-10T03:45:13.425Z,5.70
2018-11-10T03:47:42.006Z,5.10
2018-11-10T03:50:11.562Z,7.77
2018-11-10T03:52:40.084Z,5.60
2018-11-10T03:55:09.111Z,6.97
2018-11-10T03:57:37.607Z,6.00
2018-11-10T04:00:07.553Z,5.27
2018-11-10T04:02:36.029Z,7.57
2018-11-10T04:05:04.537Z,6.10
2018-11-10T04:07:33.017Z,5.03
2018-11-10T04:10:01.596Z,5.73
2018-11-10T04:12:30.148Z,6.67
2018-11-10T04:14:58.637Z,5.13
2018-11-10T04:17:27.196Z,7.87
2018-11-10T04:19:56.680Z,4.47
2018-11-10T04:22:31.396Z,5.10
2018-11-10T04:24:59.948Z,4.60
2018-11-10T04:27:28.796Z,5.40
2018-11-10T04:29:57.283Z,5.77
2018-11-10T04:32:25.839Z,6.33
2018-11-10T04:34:54.404Z,5.87
2018-11-10T04:37:23.060Z,5.93
2018-11-10T04:39:51.607Z,7.20
2018-11-10T04:42:20.117Z,5.20
2018-11-10T04:44:48.740Z,5.13
2018-11-10T04:47:17.310Z,4.97
2018-11-10T04:49:45.961Z,4.17
2018-11-10T04:52:14.380Z,4.93
2018-11-10T04:54:42.840Z,5.30
2018-11-10T04:57:11.378Z,5.00
2018-11-10T04:59:39.859Z,5.33
2018-11-10T05:02:08.428Z,4.87
2018-11-10T05:04:36.930Z,5.63
2018-11-10T05:07:05.542Z,4.67
2018-11-10T05:09:34.161Z,4.97
2018-11-10T05:12:02.755Z,6.33
2018-11-10T05:14:31.264Z,5.13
2018-11-10T05:16:59.872Z,6.07
2018-11-10T05:19:28.391Z,4.47
2018-11-10T05:21:56.879Z,6.17
2018-11-10T05:24:25.399Z,6.10
2018-11-10T05:26:53.910Z,5.37
2018-11-10T05:29:22.381Z,6.70
2018-11-10T05:31:50.876Z,5.23
2018-11-10T05:34:19.402Z,5.20
2018-11-10T05:36:47.940Z,6.53
2018-11-10T05:39:16.406Z,5.17
2018-11-10T05:41:44.990Z,5.77
2018-11-10T05:44:13.506Z,6.43
2018-11-10T05:46:42.037Z,6.77
2018-11-10T05:49:10.609Z,7.90
2018-11-10T05:51:39.894Z,6.43
2018-11-10T05:54:09.293Z,6.43
2018-11-10T05:56:38.493Z,5.30
2018-11-10T05:59:07.974Z,5.93
2018-11-10T06:01:37.305Z,5.50
2018-11-10T06:04:06.810Z,6.17
2018-11-10T06:06:36.007Z,5.80
2018-11-10T06:09:07.584Z,6.13
2018-11-10T06:11:36.761Z,7.40
2018-11-10T06:14:06.168Z,8.33
2018-11-10T06:16:35.528Z,6.40
2018-11-10T06:19:04.581Z,5.70
2018-11-10T06:21:33.925Z,8.63
2018-11-10T06:24:03.223Z,7.40
2018-11-10T06:26:32.683Z,8.20
2018-11-10T06:29:01.852Z,9.23
2018-11-10T06:31:31.440Z,8.97
2018-11-10T06:34:01.143Z,7.70
2018-11-10T06:36:30.770Z,10.23
2018-11-10T06:39:01.042Z,7.53
2018-11-10T06:41:30.516Z,7.70
2018-11-10T06:44:01.797Z,8.43
2018-11-10T06:46:31.978Z,7.57
2018-11-10T06:49:02.205Z,8.10
2018-11-10T06:51:32.429Z,8.00
2018-11-10T06:54:18.479Z,9.50
2018-11-10T06:56:48.427Z,10.13
2018-11-10T06:59:17.111Z,9.20
2018-11-10T07:01:45.824Z,11.70
2018-11-10T07:04:14.444Z,11.00
2018-11-10T07:06:43.012Z,9.40
2018-11-10T07:09:12.164Z,11.07
2018-11-10T07:11:41.464Z,10.50
2018-11-10T07:14:10.071Z,9.60
2018-11-10T07:16:38.603Z,8.33
2018-11-10T07:19:07.107Z,9.63
2018-11-10T07:21:36.390Z,10.83
2018-11-10T07:24:05.345Z,8.70
2018-11-10T07:26:33.995Z,9.33
2018-11-10T07:29:02.697Z,11.27
2018-11-10T07:31:31.475Z,9.73
2018-11-10T07:34:00.075Z,8.27
2018-11-10T07:36:28.726Z,8.53
2018-11-10T07:38:57.323Z,9.37
2018-11-10T07:41:25.872Z,10.27
2018-11-10T07:43:54.413Z,10.37
2018-11-10T07:46:23.445Z,11.37
2018-11-10T07:48:52.101Z,9.27
2018-11-10T07:51:20.792Z,9.73
2018-11-10T07:53:49.344Z,10.30
2018-11-10T07:56:17.872Z,9.47
2018-11-10T07:58:46.714Z,8.20
2018-11-10T08:01:15.363Z,11.43
2018-11-10T08:03:44.094Z,9.63
2018-11-10T08:06:12.707Z,8.80
2018-11-10T08:08:41.354Z,8.23
2018-11-10T08:11:10.069Z,7.53
2018-11-10T08:13:38.685Z,8.03
2018-11-10T08:16:07.639Z,8.97
2018-11-10T08:18:36.931Z,8.73
2018-11-10T08:21:05.761Z,7.50
2018-11-10T08:23:34.569Z,8.90
2018-11-10T08:26:03.225Z,7.67
2018-11-10T08:28:32.379Z,8.80
2018-11-10T08:31:02.220Z,7.50
2018-11-10T08:33:30.815Z,11.90
2018-11-10T08:35:59.657Z,10.47
2018-11-10T08:38:31.546Z,7.90
2018-11-10T08:41:00.365Z,9.33
2018-11-10T08:43:29.182Z,9.53
2018-11-10T08:45:58.682Z,5.30
2018-11-10T08:48:28.689Z,6.40
2018-11-10T08:50:57.728Z,7.57
2018-11-10T08:53:36.329Z,6.73
2018-11-10T08:56:10.793Z,7.63
2018-11-10T08:58:44.453Z,10.33
2018-11-10T09:01:15.572Z,7.10
2018-11-10T09:03:47.024Z,6.90
2018-11-10T09:06:15.614Z,5.93
2018-11-10T09:08:45.036Z,6.53
2018-11-10T09:11:13.793Z,5.70
2018-11-10T09:13:42.731Z,6.80
2018-11-10T09:16:12.073Z,5.67
2018-11-10T09:18:43.154Z,7.97
2018-11-10T09:21:11.822Z,8.13
2018-11-10T09:23:52.681Z,7.33
2018-11-10T09:26:26.032Z,6.80
2018-11-10T09:28:56.383Z,5.13
2018-11-10T09:31:27.585Z,5.60
2018-11-10T09:34:02.262Z,7.17
2018-11-10T09:36:36.924Z,6.57
2018-11-10T09:39:12.827Z,6.40
2018-11-10T09:41:43.418Z,6.30
2018-11-10T09:44:17.058Z,7.37
2018-11-10T09:46:50.091Z,6.17
2018-11-10T09:49:24.110Z,6.33
2018-11-10T09:51:56.947Z,7.57
2018-11-10T09:54:29.288Z,7.03
2018-11-10T09:57:01.783Z,5.93
2018-11-10T09:59:35.299Z,5.83
2018-11-10T10:02:10.162Z,9.50
2018-11-10T10:04:45.526Z,7.53
2018-11-10T10:07:20.306Z,6.83
2018-11-10T10:09:53.868Z,6.17
2018-11-10T10:12:28.314Z,6.77
2018-11-10T10:17:48.376Z,5.87
2018-11-10T10:20:24.200Z,5.77
2018-11-10T10:22:57.447Z,6.47
2018-11-10T10:25:26.149Z,6.33
2018-11-10T10:27:54.974Z,6.03
2018-11-10T10:30:25.175Z,5.87
2018-11-10T10:32:53.886Z,6.03
2018-11-10T10:35:23.096Z,7.03
2018-11-10T10:37:52.621Z,5.30
2018-11-10T10:40:21.637Z,6.30
2018-11-10T10:42:50.600Z,5.97
2018-11-10T10:45:22.739Z,5.73
2018-11-10T10:47:51.429Z,5.53
2018-11-10T10:50:21.525Z,6.50
2018-11-10T10:52:50.342Z,5.90
2018-11-10T10:55:19.671Z,5.27
2018-11-10T10:57:49.197Z,6.33
2018-11-10T11:00:23.064Z,5.27
2018-11-10T11:02:57.104Z,4.93
2018-11-10T11:05:30.872Z,5.63
2018-11-10T11:07:59.492Z,5.30
2018-11-10T11:10:28.134Z,6.00
2018-11-10T11:12:56.772Z,6.27
2018-11-10T11:15:25.653Z,5.83
2018-11-10T11:17:54.340Z,5.73
2018-11-10T11:20:23.213Z,6.17
2018-11-10T11:22:51.736Z,7.43
2018-11-10T11:25:20.401Z,7.30
2018-11-10T11:27:49.788Z,7.77
2018-11-10T11:30:18.641Z,6.60
2018-11-10T11:32:47.284Z,5.93
2018-11-10T11:35:16.022Z,7.87
2018-11-10T11:37:44.694Z,5.70
2018-11-10T11:40:14.480Z,6.27
2018-11-10T11:42:43.693Z,8.37
2018-11-10T11:45:13.168Z,6.93
2018-11-10T11:47:42.525Z,7.10
2018-11-10T11:50:13.329Z,7.30
2018-11-10T11:52:42.450Z,7.93
2018-11-10T11:55:12.345Z,5.67
2018-11-10T11:57:41.307Z,8.27
2018-11-10T12:00:12.300Z,5.93
2018-11-10T12:02:41.696Z,6.30
2018-11-10T12:05:11.844Z,5.83
2018-11-10T12:07:40.601Z,6.70
2018-11-10T12:10:11.280Z,6.23
2018-11-10T12:12:40.025Z,7.37
2018-11-10T12:15:10.299Z,6.53
2018-11-10T12:17:39.216Z,6.33
2018-11-10T12:20:10.533Z,7.27
2018-11-10T12:22:39.227Z,5.73
2018-11-10T12:25:10.203Z,6.53
2018-11-10T12:27:38.821Z,6.23
2018-11-10T12:30:09.744Z,8.40
2018-11-10T12:32:38.699Z,7.93
2018-11-10T12:35:08.626Z,6.03
2018-11-10T12:37:37.280Z,7.23
2018-11-10T12:40:09.282Z,6.63
2018-11-10T12:42:38.762Z,6.60
2018-11-10T12:45:08.977Z,7.03
2018-11-10T12:47:38.246Z,7.53
2018-11-10T12:50:08.000Z,7.80
2018-11-10T12:52:36.637Z,6.67
2018-11-10T12:55:06.606Z,8.27
2018-11-10T12:57:35.383Z,6.67
2018-11-10T13:00:04.326Z,8.17
2018-11-10T13:02:32.938Z,6.97
2018-11-10T13:05:01.512Z,6.50
2018-11-10T13:07:30.127Z,7.03
2018-11-10T13:09:58.748Z,6.20
2018-11-10T13:12:27.401Z,6.33
2018-11-10T13:14:56.022Z,6.47
2018-11-10T13:17:25.205Z,6.63
2018-11-10T13:19:54.040Z,6.10
2018-11-10T13:22:22.914Z,6.33
2018-11-10T13:24:51.503Z,6.60
2018-11-10T13:27:20.053Z,5.23
2018-11-10T13:29:48.534Z,4.90
2018-11-10T13:32:17.084Z,5.77
2018-11-10T13:34:45.562Z,5.30
2018-11-10T13:37:14.514Z,5.87
2018-11-10T13:39:43.085Z,5.47
2018-11-10T13:42:11.917Z,5.47
2018-11-10T13:44:40.538Z,4.83
2018-11-10T13:47:09.284Z,5.23
2018-11-10T13:49:37.866Z,5.90
2018-11-10T13:52:06.873Z,4.37
2018-11-10T13:54:35.437Z,4.63
2018-11-10T13:57:04.083Z,4.60
2018-11-10T13:59:32.860Z,4.40
2018-11-10T14:02:01.350Z,4.97
2018-11-10T14:04:29.911Z,5.37
2018-11-10T14:06:58.591Z,5.03
2018-11-10T14:09:27.165Z,4.63
2018-11-10T14:11:55.773Z,5.20
2018-11-10T14:14:28.572Z,4.53
2018-11-10T14:16:57.238Z,4.63
2018-11-10T14:19:26.024Z,5.30
2018-11-10T14:21:54.643Z,4.87
2018-11-10T14:24:23.464Z,4.90
2018-11-10T14:26:52.048Z,4.47
2018-11-10T14:29:20.780Z,4.40
2018-11-10T14:31:49.641Z,4.87
2018-11-10T14:34:18.713Z,4.47
2018-11-10T14:36:47.543Z,5.30
2018-11-10T14:39:16.206Z,4.67
2018-11-10T14:41:45.019Z,3.90
2018-11-10T14:44:13.582Z,4.17
2018-11-10T14:46:42.123Z,5.57
2018-11-10T14:49:10.656Z,4.20
2018-11-10T14:51:39.310Z,4.53
2018-11-10T14:54:07.862Z,4.00
2018-11-10T14:56:36.576Z,4.50
2018-11-10T14:59:05.305Z,4.00
2018-11-10T15:01:33.914Z,4.97
2018-11-10T15:04:02.750Z,4.60
2018-11-10T15:06:31.469Z,4.57
2018-11-10T15:09:00.212Z,3.97
2018-11-10T15:11:29.027Z,4.43
2018-11-10T15:13:57.656Z,4.63
2018-11-10T15:16:26.347Z,4.50
2018-11-10T15:18:54.849Z,4.87
2018-11-10T15:21:23.451Z,4.73
2018-11-10T15:23:52.334Z,3.50
2018-11-10T15:26:20.972Z,4.13
2018-11-10T15:28:49.424Z,4.27
2018-11-10T15:31:18.006Z,4.20
2018-11-10T15:33:46.559Z,4.27
2018-11-10T15:36:15.244Z,3.20
2018-11-10T15:38:43.850Z,2.77
2018-11-10T15:41:12.438Z,3.93
2018-11-10T15:43:41.032Z,3.23
2018-11-10T15:46:09.607Z,3.27
2018-11-10T15:48:38.237Z,6.00
2018-11-10T15:51:06.774Z,2.50
2018-11-10T15:53:35.653Z,2.90
2018-11-10T15:56:04.387Z,2.60
2018-11-10T15:58:32.961Z,2.77
2018-11-10T16:01:01.548Z,3.30
2018-11-10T16:03:30.187Z,3.40
2018-11-10T16:05:58.748Z,2.63
2018-11-10T16:08:27.349Z,2.60
2018-11-10T16:10:55.931Z,3.27
2018-11-10T16:13:24.559Z,2.97
2018-11-10T16:15:53.266Z,3.03
2018-11-10T16:18:21.906Z,2.90
2018-11-10T16:20:50.579Z,3.03
2018-11-10T16:23:19.103Z,5.47
2018-11-10T16:25:47.740Z,3.27
2018-11-10T16:28:18.120Z,2.97
2018-11-10T16:30:46.784Z,3.17
2018-11-10T16:33:15.386Z,2.80
2018-11-10T16:35:44.054Z,3.50
2018-11-10T16:38:12.593Z,3.17
2018-11-10T16:40:41.156Z,3.47
2018-11-10T16:43:09.769Z,3.07
2018-11-10T16:45:38.372Z,2.83
2018-11-10T16:48:06.996Z,3.33
2018-11-10T16:50:35.582Z,2.90
2018-11-10T16:53:04.874Z,3.03
2018-11-10T16:55:33.460Z,2.77
2018-11-10T16:58:02.092Z,2.87
2018-11-10T17:00:31.365Z,2.63
2018-11-10T17:03:00.077Z,3.33
2018-11-10T17:05:28.759Z,12.33
2018-11-10T17:07:57.429Z,2.50
2018-11-10T17:10:26.256Z,4.20
2018-11-10T17:12:54.882Z,2.53
2018-11-10T17:15:23.713Z,2.00
2018-11-10T17:17:52.403Z,2.60
2018-11-10T17:20:21.010Z,2.20
2018-11-10T17:22:49.706Z,2.97
2018-11-10T17:25:18.320Z,3.60
2018-11-10T17:27:47.150Z,2.63
2018-11-10T17:30:17.276Z,2.83
2018-11-10T17:32:46.909Z,2.40
2018-11-10T17:35:15.896Z,1.90
2018-11-10T17:37:44.949Z,2.43
2018-11-10T17:40:14.248Z,2.43
2018-11-10T17:42:42.872Z,2.60
2018-11-10T17:45:13.831Z,2.13
2018-11-10T17:47:42.985Z,2.17
2018-11-10T17:50:13.098Z,2.87
2018-11-10T17:52:42.243Z,2.60
2018-11-10T17:55:13.051Z,2.53
2018-11-10T17:57:42.251Z,2.70
2018-11-10T18:00:10.797Z,5.93
2018-11-10T18:02:39.441Z,2.40
2018-11-10T18:05:10.768Z,2.10
2018-11-10T18:07:39.411Z,2.73
2018-11-10T18:10:09.680Z,2.00
2018-11-10T18:12:38.335Z,2.50
2018-11-10T18:15:08.591Z,2.87
2018-11-10T18:17:37.306Z,2.43
2018-11-10T18:20:06.948Z,2.10
2018-11-10T18:22:35.545Z,2.27
2018-11-10T18:25:04.268Z,2.37
2018-11-10T18:27:32.757Z,1.70
2018-11-10T18:30:01.310Z,1.77
2018-11-10T18:32:30.299Z,2.20
2018-11-10T18:34:58.901Z,4.10
2018-11-10T18:37:27.445Z,2.20
2018-11-10T18:39:56.146Z,1.57
2018-11-10T18:42:24.614Z,2.60
2018-11-10T18:44:53.275Z,2.30
2018-11-10T18:47:21.861Z,2.40
2018-11-10T18:49:50.393Z,2.03
2018-11-10T18:52:18.928Z,1.97
2018-11-10T18:54:47.654Z,1.93
2018-11-10T18:57:16.430Z,2.07
2018-11-10T18:59:44.954Z,2.10
2018-11-10T19:02:13.713Z,2.50
2018-11-10T19:04:42.407Z,2.10
2018-11-10T19:07:10.967Z,2.57
2018-11-10T19:09:39.464Z,2.43
2018-11-10T19:12:08.251Z,4.83
2018-11-10T19:14:36.934Z,3.27
2018-11-10T19:17:05.530Z,3.77
2018-11-10T19:19:34.256Z,3.20
2018-11-10T19:22:02.783Z,3.33
2018-11-10T19:24:31.681Z,2.93
2018-11-10T19:27:00.490Z,4.00
2018-11-10T19:29:28.953Z,3.20
2018-11-10T19:31:57.534Z,3.60
2018-11-10T19:34:26.134Z,3.90
2018-11-10T19:36:54.701Z,4.13
2018-11-10T19:39:23.254Z,4.23
2018-11-10T19:41:51.777Z,5.47
2018-11-10T19:44:20.521Z,3.93
2018-11-10T19:46:49.003Z,4.60
2018-11-10T19:49:17.611Z,4.40
2018-11-10T19:51:46.262Z,5.23
2018-11-10T19:54:14.788Z,4.97
2018-11-10T19:56:43.360Z,5.87
2018-11-10T19:59:11.934Z,5.77
2018-11-10T20:01:40.528Z,6.90
2018-11-10T20:04:09.085Z,6.57
2018-11-10T20:06:37.790Z,5.80
2018-11-10T20:09:08.342Z,5.63
2018-11-10T20:11:36.977Z,6.37
2018-11-10T20:14:05.694Z,6.40
2018-11-10T20:16:34.274Z,6.13
2018-11-10T20:19:02.763Z,6.87
2018-11-10T20:21:31.308Z,6.20
2018-11-10T20:23:59.952Z,5.37
2018-11-10T20:26:28.516Z,7.10
2018-11-10T20:28:57.074Z,7.60
2018-11-10T20:31:25.661Z,6.33
2018-11-10T20:33:54.227Z,6.77
2018-11-10T20:36:22.821Z,6.37
2018-11-10T20:38:51.474Z,6.77
2018-11-10T20:41:19.949Z,6.00
2018-11-10T20:43:48.491Z,4.83
2018-11-10T20:46:17.064Z,4.60
2018-11-10T20:48:45.663Z,4.90
2018-11-10T20:51:14.507Z,4.13
2018-11-10T20:53:43.364Z,4.60
2018-11-10T20:56:12.353Z,4.37
2018-11-10T20:58:40.961Z,4.17
2018-11-10T21:01:09.854Z,4.60
2018-11-10T21:03:38.666Z,4.00
2018-11-10T21:06:07.188Z,7.23
2018-11-10T21:08:36.333Z,6.03
2018-11-10T21:11:05.077Z,5.77
2018-11-10T21:13:33.777Z,6.00
2018-11-10T21:16:02.392Z,5.20
2018-11-10T21:18:31.045Z,14.57
2018-11-10T21:20:59.601Z,7.17
2018-11-10T21:23:28.281Z,6.97
2018-11-10T21:25:57.020Z,7.00
2018-11-10T21:28:25.623Z,7.60
2018-11-10T21:30:54.361Z,7.53
2018-11-10T21:33:23.012Z,7.17
2018-11-10T21:35:51.688Z,8.87
2018-11-10T21:38:20.235Z,6.33
2018-11-10T21:40:48.922Z,6.67
2018-11-10T21:43:17.691Z,6.90
2018-11-10T21:45:46.314Z,5.90
2018-11-10T21:48:14.941Z,5.97
2018-11-10T21:50:43.614Z,5.77
2018-11-10T21:53:12.192Z,5.10
2018-11-10T21:55:40.866Z,5.97
2018-11-10T21:58:09.508Z,4.10
2018-11-10T22:00:38.353Z,4.50
2018-11-10T22:03:07.046Z,4.37
2018-11-10T22:05:35.632Z,4.03
2018-11-10T22:08:04.238Z,3.97
2018-11-10T22:10:32.856Z,3.60
2018-11-10T22:13:01.429Z,3.53
2018-11-10T22:15:30.169Z,5.93
2018-11-10T22:17:58.862Z,2.80
2018-11-10T22:20:27.545Z,5.13
2018-11-10T22:22:56.219Z,3.00
2018-11-10T22:25:24.946Z,3.07
2018-11-10T22:27:54.376Z,3.37
2018-11-10T22:30:23.717Z,3.43
2018-11-10T22:32:52.656Z,2.57
2018-11-10T22:35:21.442Z,4.90
2018-11-10T22:37:50.080Z,2.40
2018-11-10T22:40:20.118Z,2.40
2018-11-10T22:42:48.757Z,2.67
2018-11-10T22:45:18.821Z,3.10
2018-11-10T22:47:47.499Z,2.70
2018-11-10T22:50:17.733Z,2.33
2018-11-10T22:52:46.492Z,2.47
2018-11-10T22:55:15.402Z,2.80
2018-11-10T22:57:44.213Z,2.57
2018-11-10T23:00:18.698Z,2.90
2018-11-10T23:02:49.224Z,2.57
2018-11-10T23:05:18.370Z,2.70
2018-11-10T23:07:47.045Z,2.60
2018-11-10T23:10:16.272Z,2.03
2018-11-10T23:12:45.709Z,2.27
2018-11-10T23:15:14.246Z,1.90
2018-11-10T23:17:42.807Z,2.10
2018-11-10T23:20:13.351Z,1.97
2018-11-10T23:22:42.158Z,1.73
2018-11-10T23:25:12.537Z,1.97
2018-11-10T23:27:41.076Z,1.70
2018-11-10T23:30:11.911Z,1.87
2018-11-10T23:32:41.022Z,2.63
2018-11-10T23:35:10.245Z,1.60
2018-11-10T23:37:38.823Z,1.50
2018-11-10T23:40:08.654Z,1.50
2018-11-10T23:42:37.180Z,5.50
2018-11-10T23:45:06.459Z,1.37
2018-11-10T23:47:35.075Z,1.27
2018-11-10T23:50:03.699Z,0.90
2018-11-10T23:52:32.313Z,1.30
2018-11-10T23:55:00.975Z,2.43
2018-11-10T23:57:29.617Z,1.00
2018-11-10T23:59:58.313Z,1.33
